East Boston, Massachusetts
Current Conditions -  °F | °C
As of 8:32 AM on Friday 28 Nov 2014 (Local Time) from KBOS Reporting Station
Light Snow Light Snow  
Wind Chill: 18°   Ceiling: 2100
Heat Index: 28°   Visibility: 3mi
Dew Point: 25°   Wind: 12mph
Humidity: 86%   Direction: 330°NNW
Pressure: 30.06"   Gusts: NA
Location:  42.3583°N, 71.0602°W
Report Text: KBOS 281332Z 33010KT 3SM -SN BR FEW012 OVC021 M02/M04 A3006 RMK AO2 P0001
Loading
Personal Weather Stations






























Interactive Weather Map New forecast layout! Learn more

10-Day Weather Forecast

Advertisements
Track Severe Weather on mobile